EDT,Max TemperatureF,Mean TemperatureF,Min TemperatureF,Max Dew PointF,MeanDew PointF,Min DewpointF,Max Humidity, Mean Humidity, Min Humidity, Max Sea Level PressureIn, Mean Sea Level PressureIn, Min Sea Level PressureIn, Max VisibilityMiles, Mean VisibilityMiles, Min VisibilityMiles, Max Wind SpeedMPH, Mean Wind SpeedMPH, Max Gust SpeedMPH,PrecipitationIn, CloudCover, Events, WindDirDegrees
2012-9-1,87,82,79,78,76,72,93,81,72,30.18,30.12,30.08,10,10,10,13,9,,0.00,0,,57
2012-9-2,85,82,78,72,71,68,76,69,62,30.11,30.06,30.01,10,10,10,10,8,,0.00,0,,75
2012-9-3,86,82,78,75,73,71,82,74,66,30.08,30.04,30.00,10,10,10,12,6,,0.00,0,,97
2012-9-4,86,82,77,76,74,71,87,78,70,30.06,30.01,29.96,10,10,10,21,8,28,0.00,1,,166
2012-9-5,90,82,75,77,73,70,89,77,60,30.01,29.98,29.94,10,10,10,24,11,34,0.00,1,Thunderstorm,198
2012-9-6,86,80,74,78,73,70,92,82,66,30.05,30.00,29.95,10,10,10,25,9,36,0.00,1,Thunderstorm,206
2012-9-7,88,80,73,78,74,72,96,87,67,30.02,29.98,29.92,10,10,9,18,9,23,0.15,2,Rain-Thunderstorm,229
2012-9-8,92,83,75,78,75,73,96,77,56,29.98,29.93,29.88,10,10,10,13,8,,0.00,0,,223
2012-9-9,90,84,78,77,75,73,89,79,65,29.97,29.92,29.90,10,10,10,24,13,33,0.00,1,,241
2012-9-10,87,80,75,76,74,72,94,85,67,30.04,29.98,29.93,10,8,2,12,8,,1.11,4,Rain-Thunderstorm,149
2012-9-11,85,82,78,73,68,65,80,66,54,30.14,30.08,30.02,10,9,6,18,13,,0.05,2,Rain,58
2012-9-12,86,82,78,68,66,64,68,60,52,30.15,30.10,30.07,10,10,10,22,13,29,0.00,3,,81
2012-9-13,86,82,79,75,70,62,82,67,55,30.13,30.08,30.04,10,10,10,18,13,,0.00,0,,74
2012-9-14,85,81,77,76,74,73,88,79,72,30.08,30.05,30.01,10,10,10,17,11,,0.00,1,,78
2012-9-15,85,81,77,75,73,70,87,75,67,30.10,30.06,30.03,10,10,10,16,11,,0.00,0,,85
2012-9-16,86,82,79,75,72,70,84,74,59,30.09,30.05,30.01,10,10,10,15,9,,0.00,1,,115
2012-9-17,87,82,78,74,73,71,84,72,58,30.04,30.00,29.94,10,10,10,18,10,,0.00,0,Rain,143
2012-9-18,91,82,74,77,74,72,94,82,58,29.98,29.94,29.89,10,9,2,29,13,33,0.17,1,Rain-Thunderstorm,226
2012-9-19,88,80,73,75,72,68,94,85,60,30.05,29.99,29.92,10,10,1,23,9,26,0.13,3,Rain,204
2012-9-20,83,78,74,77,74,71,95,85,78,30.05,30.02,29.96,10,10,10,8,6,,0.00,0,Rain,130
2012-9-21,86,80,75,76,74,71,94,84,66,30.03,30.00,29.95,10,10,5,13,7,,0.20,1,Rain-Thunderstorm,30
2012-9-22,83,78,74,74,72,69,94,83,74,30.05,30.01,29.96,10,9,2,16,6,,0.17,2,Rain,73
2012-9-23,87,80,75,73,72,69,92,75,55,30.08,30.04,30.01,10,10,10,15,7,,0.00,0,,16
2012-9-24,84,80,77,74,67,62,89,67,49,30.10,30.06,30.03,10,10,10,16,9,,0.00,0,,358
2012-9-25,84,79,74,72,67,57,85,69,41,30.12,30.07,30.04,10,10,10,10,7,,0.00,0,,8
2012-9-26,86,80,75,75,73,70,93,78,68,30.13,30.09,30.05,10,10,10,10,6,,0.00,0,Thunderstorm,72
2012-9-27,86,82,77,76,74,71,92,79,65,30.13,30.08,30.04,10,10,10,16,8,,0.00,0,Thunderstorm,36
2012-9-28,85,81,77,75,74,72,90,77,66,30.07,30.02,29.97,10,10,10,12,7,,0.00,0,,64
2012-9-29,85,80,77,75,74,71,89,78,68,30.01,29.95,29.88,10,10,8,12,4,,0.01,1,Rain,89
2012-9-30,87,81,76,76,75,72,89,78,68,29.91,29.86,29.80,10,10,10,18,8,,0.00,0,,165